Time;durP1;ratioP1;P1;durP2;ratioP2;P2;SDS_P1;SDS_P2;PMS_P1;PMS_P2;Temp;Humidity;BMP_temperature;BMP_pressure;BME280_temperature;BME280_humidity;BME280_pressure;Samples;Min_cycle;Max_cycle;Signal;HPM_P1;HPM_P2
2023/03/19 00:01:45;;;;;;;11.23;10.10;;;;;;;;;;5062154;28;20824;-52
2023/03/19 00:04:12;;;;;;;14.50;11.52;;;;;;;;;;5062881;27;20291;-53
2023/03/19 00:06:39;;;;;;;12.88;10.18;;;;;;;;;;5065223;28;20284;-51
2023/03/19 00:09:05;;;;;;;12.82;11.43;;;;;;;;;;5066682;28;20239;-52
2023/03/19 00:11:33;;;;;;;14.18;10.68;;;;;;;;;;5073121;28;20296;-53
2023/03/19 00:14:00;;;;;;;14.13;10.20;;;;;;;;;;5064785;28;20280;-53
2023/03/19 00:16:27;;;;;;;14.93;10.40;;;;;;;;;;5066907;28;20227;-51
2023/03/19 00:18:54;;;;;;;11.90;10.70;;;;;;;;;;5068109;28;20235;-51
2023/03/19 00:21:21;;;;;;;12.45;9.90;;;;;;;;;;5062709;28;20273;-53
2023/03/19 00:23:48;;;;;;;11.35;9.85;;;;;;;;;;5063853;28;20266;-52
2023/03/19 00:26:14;;;;;;;12.93;10.07;;;;;;;;;;5065937;28;20273;-52
2023/03/19 00:28:41;;;;;;;10.43;9.43;;;;;;;;;;5066961;28;20977;-54
2023/03/19 00:31:10;;;;;;;10.77;9.30;;;;;;;;;;5066984;28;20714;-51
2023/03/19 00:33:37;;;;;;;14.30;10.38;;;;;;;;;;5069047;28;20238;-52
2023/03/19 00:36:04;;;;;;;11.65;10.45;;;;;;;;;;5065992;28;20736;-52
2023/03/19 00:38:31;;;;;;;12.47;10.00;;;;;;;;;;5061298;28;20318;-52
2023/03/19 00:40:57;;;;;;;13.63;10.00;;;;;;;;;;5061190;28;20422;-52
2023/03/19 00:43:24;;;;;;;15.43;10.17;;;;;;;;;;5061811;28;20333;-51
2023/03/19 00:45:50;;;;;;;12.95;10.45;;;;;;;;;;5062985;28;20228;-52
2023/03/19 00:48:19;;;;;;;11.77;9.32;;;;;;;;;;5059915;28;20311;-51
2023/03/19 00:50:45;;;;;;;16.87;10.00;;;;;;;;;;5060647;28;20271;-52
2023/03/19 00:53:12;;;;;;;11.97;10.13;;;;;;;;;;5060782;28;20736;-52
2023/03/19 00:55:38;;;;;;;11.20;10.00;;;;;;;;;;5061803;28;20227;-52
2023/03/19 00:58:06;;;;;;;12.80;9.33;;;;;;;;;;5063842;28;20289;-52
2023/03/19 01:00:33;;;;;;;12.02;9.23;;;;;;;;;;5060027;28;20255;-51
2023/03/19 01:03:00;;;;;;;10.00;8.67;;;;;;;;;;5043440;28;20239;-52
2023/03/19 01:05:28;;;;;;;11.77;9.33;;;;;;;;;;5043815;28;20473;-51
2023/03/19 01:07:55;;;;;;;11.17;9.37;;;;;;;;;;5058643;28;20239;-51
2023/03/19 01:10:22;;;;;;;10.97;9.17;;;;;;;;;;5063136;28;20689;-50
2023/03/19 01:12:49;;;;;;;10.93;8.97;;;;;;;;;;5054089;28;20243;-51
2023/03/19 01:15:15;;;;;;;12.23;8.57;;;;;;;;;;5064358;28;20238;-52
2023/03/19 01:17:42;;;;;;;11.07;9.13;;;;;;;;;;5063979;28;20843;-51
2023/03/19 01:20:12;;;;;;;11.67;9.43;;;;;;;;;;5065390;28;20231;-52
2023/03/19 01:22:40;;;;;;;10.67;9.00;;;;;;;;;;5068998;28;20255;-50
2023/03/19 01:25:07;;;;;;;9.53;8.57;;;;;;;;;;5068860;28;20235;-52
2023/03/19 01:27:34;;;;;;;11.77;8.50;;;;;;;;;;5068169;28;20227;-51
2023/03/19 01:30:01;;;;;;;13.60;9.60;;;;;;;;;;5068878;28;20245;-53
2023/03/19 01:32:27;;;;;;;10.90;9.57;;;;;;;;;;5068151;28;20249;-52
2023/03/19 01:34:54;;;;;;;12.23;9.67;;;;;;;;;;5059547;28;20236;-52
2023/03/19 01:37:20;;;;;;;14.07;9.87;;;;;;;;;;5057269;28;20314;-52
2023/03/19 01:39:48;;;;;;;10.57;9.17;;;;;;;;;;5075438;28;20231;-53
2023/03/19 01:42:15;;;;;;;11.87;9.67;;;;;;;;;;5077014;28;22445;-52
2023/03/19 01:44:43;;;;;;;9.63;8.43;;;;;;;;;;5077028;28;20712;-52
2023/03/19 01:47:15;;;;;;;11.20;8.77;;;;;;;;;;5076359;28;20239;-51
2023/03/19 01:49:44;;;;;;;10.30;9.13;;;;;;;;;;5075134;28;20251;-55
2023/03/19 01:52:11;;;;;;;10.67;9.60;;;;;;;;;;5077228;28;20543;-53
2023/03/19 01:54:38;;;;;;;10.10;9.10;;;;;;;;;;5077157;28;20250;-52
2023/03/19 01:57:08;;;;;;;15.17;10.20;;;;;;;;;;5077220;28;20725;-54
2023/03/19 01:59:36;;;;;;;13.37;9.30;;;;;;;;;;5076372;28;20243;-52
2023/03/19 02:02:05;;;;;;;11.93;9.57;;;;;;;;;;5074322;28;20247;-52
2023/03/19 02:04:32;;;;;;;10.43;8.63;;;;;;;;;;5071624;28;20781;-52
2023/03/19 02:06:59;;;;;;;12.50;9.60;;;;;;;;;;5068077;28;20245;-52
2023/03/19 02:09:27;;;;;;;12.27;10.50;;;;;;;;;;5068536;28;20231;-52
2023/03/19 02:11:54;;;;;;;11.13;10.03;;;;;;;;;;5068265;28;20239;-52
2023/03/19 02:14:22;;;;;;;11.40;9.90;;;;;;;;;;5074036;28;20307;-51
2023/03/19 02:16:50;;;;;;;14.27;10.67;;;;;;;;;;5069946;28;20318;-55
2023/03/19 02:19:18;;;;;;;12.37;10.47;;;;;;;;;;5068993;28;20223;-52
2023/03/19 02:21:45;;;;;;;14.73;11.27;;;;;;;;;;5069928;28;20258;-52
2023/03/19 02:24:15;;;;;;;13.30;10.80;;;;;;;;;;5071282;28;20295;-52
2023/03/19 02:26:44;;;;;;;13.93;10.90;;;;;;;;;;5067889;28;20330;-51
2023/03/19 02:29:11;;;;;;;11.23;9.77;;;;;;;;;;5068724;28;20231;-52
2023/03/19 02:31:37;;;;;;;16.10;10.50;;;;;;;;;;5069183;28;20247;-54
2023/03/19 02:34:06;;;;;;;13.10;10.53;;;;;;;;;;5069298;28;20237;-52
2023/03/19 02:36:36;;;;;;;14.83;11.00;;;;;;;;;;5070949;28;20227;-52
2023/03/19 02:39:04;;;;;;;12.67;11.37;;;;;;;;;;5079198;28;20239;-53
2023/03/19 02:41:32;;;;;;;10.80;9.70;;;;;;;;;;5082232;28;20693;-52
2023/03/19 02:44:00;;;;;;;17.13;11.63;;;;;;;;;;5082384;28;20233;-52
2023/03/19 02:46:27;;;;;;;14.00;11.03;;;;;;;;;;5080391;28;20243;-52
2023/03/19 02:48:53;;;;;;;11.90;10.70;;;;;;;;;;5074433;28;20630;-51
2023/03/19 02:51:20;;;;;;;12.17;10.83;;;;;;;;;;5074859;28;20233;-52
2023/03/19 02:53:46;;;;;;;12.47;10.73;;;;;;;;;;5076794;28;20242;-51
2023/03/19 02:56:13;;;;;;;15.57;11.63;;;;;;;;;;5057370;28;20257;-51
2023/03/19 02:58:40;;;;;;;13.23;11.83;;;;;;;;;;5075879;28;20223;-50
2023/03/19 03:01:08;;;;;;;13.50;11.00;;;;;;;;;;5076625;28;20239;-52
2023/03/19 03:03:34;;;;;;;14.80;11.20;;;;;;;;;;5081571;28;20304;-52
2023/03/19 03:06:01;;;;;;;12.93;10.40;;;;;;;;;;5081736;28;20235;-51
2023/03/19 03:08:28;;;;;;;18.33;12.37;;;;;;;;;;5078958;28;20234;-51
2023/03/19 03:10:54;;;;;;;15.37;12.07;;;;;;;;;;5079782;28;20257;-51
2023/03/19 03:13:21;;;;;;;13.77;12.07;;;;;;;;;;5065211;28;20223;-52
2023/03/19 03:15:47;;;;;;;14.53;11.83;;;;;;;;;;5075109;28;20254;-53
2023/03/19 03:18:16;;;;;;;15.00;12.57;;;;;;;;;;5072921;28;20250;-51
2023/03/19 03:20:43;;;;;;;16.23;12.47;;;;;;;;;;5074406;28;20227;-58
2023/03/19 03:23:10;;;;;;;15.47;12.73;;;;;;;;;;5075551;28;20235;-56
2023/03/19 03:25:37;;;;;;;16.97;11.83;;;;;;;;;;5071842;28;20235;-51
2023/03/19 03:28:03;;;;;;;15.17;12.57;;;;;;;;;;5068872;28;20235;-54
2023/03/19 03:30:30;;;;;;;18.23;14.40;;;;;;;;;;5066758;28;20223;-52
2023/03/19 03:32:56;;;;;;;14.73;12.53;;;;;;;;;;5065478;28;20239;-53
2023/03/19 03:35:26;;;;;;;14.27;11.40;;;;;;;;;;5065466;28;20227;-51
2023/03/19 03:37:52;;;;;;;14.63;12.27;;;;;;;;;;5064875;28;20235;-53
2023/03/19 03:40:19;;;;;;;13.87;12.37;;;;;;;;;;5065460;28;20231;-52
2023/03/19 03:42:46;;;;;;;13.83;10.87;;;;;;;;;;5064255;28;20240;-52
2023/03/19 03:45:13;;;;;;;11.77;10.43;;;;;;;;;;5064131;28;20231;-52
2023/03/19 03:47:39;;;;;;;14.73;12.70;;;;;;;;;;5063701;28;20259;-51
2023/03/19 03:50:09;;;;;;;14.93;13.40;;;;;;;;;;5063693;28;20275;-51
2023/03/19 03:52:37;;;;;;;13.63;11.77;;;;;;;;;;5060965;28;20239;-51
2023/03/19 03:55:04;;;;;;;15.33;12.50;;;;;;;;;;5064848;28;20768;-52
2023/03/19 03:57:31;;;;;;;15.77;11.33;;;;;;;;;;5063726;28;20317;-52
2023/03/19 03:59:57;;;;;;;14.87;12.10;;;;;;;;;;5063860;28;20322;-53
2023/03/19 04:02:24;;;;;;;16.13;12.57;;;;;;;;;;5064507;28;20231;-51
2023/03/19 04:04:51;;;;;;;16.73;12.83;;;;;;;;;;5064354;28;20265;-51
2023/03/19 04:07:17;;;;;;;16.93;12.60;;;;;;;;;;5061735;28;20285;-52
2023/03/19 04:09:45;;;;;;;13.87;11.73;;;;;;;;;;5062235;28;20280;-51
2023/03/19 04:12:12;;;;;;;13.47;11.80;;;;;;;;;;5063193;28;20239;-52
2023/03/19 04:14:39;;;;;;;14.60;12.33;;;;;;;;;;5064860;28;20280;-52
2023/03/19 04:17:05;;;;;;;15.57;11.37;;;;;;;;;;5062918;28;20235;-53
2023/03/19 04:19:32;;;;;;;17.67;13.27;;;;;;;;;;5058778;28;20261;-52
2023/03/19 04:21:59;;;;;;;16.27;12.90;;;;;;;;;;5064829;28;20235;-53
2023/03/19 04:24:26;;;;;;;15.40;12.07;;;;;;;;;;5062982;28;20927;-52
2023/03/19 04:26:54;;;;;;;17.13;12.67;;;;;;;;;;5062289;28;20322;-51
2023/03/19 04:29:21;;;;;;;12.90;11.40;;;;;;;;;;5063098;28;20703;-52
2023/03/19 04:31:48;;;;;;;14.57;12.27;;;;;;;;;;5064112;28;20328;-51
2023/03/19 04:34:16;;;;;;;16.93;12.97;;;;;;;;;;5062391;28;20235;-52
2023/03/19 04:36:43;;;;;;;13.13;11.77;;;;;;;;;;5062130;28;20281;-52
2023/03/19 04:39:09;;;;;;;15.90;12.77;;;;;;;;;;5061311;28;20261;-51
2023/03/19 04:41:36;;;;;;;18.73;12.83;;;;;;;;;;5062364;28;20238;-52
2023/03/19 04:44:04;;;;;;;19.87;12.90;;;;;;;;;;5063423;28;20243;-53
2023/03/19 04:46:31;;;;;;;13.70;11.70;;;;;;;;;;5063596;28;20246;-53
2023/03/19 04:48:58;;;;;;;19.73;13.20;;;;;;;;;;5060749;28;20239;-53
2023/03/19 04:51:25;;;;;;;13.03;11.67;;;;;;;;;;5058922;28;20235;-53
2023/03/19 04:53:51;;;;;;;15.70;11.73;;;;;;;;;;5063376;28;20333;-52
2023/03/19 04:56:18;;;;;;;17.13;12.53;;;;;;;;;;5062642;28;20227;-52
2023/03/19 04:58:46;;;;;;;16.67;13.27;;;;;;;;;;5062161;28;20697;-52
2023/03/19 05:01:13;;;;;;;15.90;12.27;;;;;;;;;;5061228;28;20607;-51
2023/03/19 05:03:40;;;;;;;16.10;11.67;;;;;;;;;;5062541;28;20227;-52
2023/03/19 05:06:07;;;;;;;12.03;10.87;;;;;;;;;;5063361;28;20264;-51
2023/03/19 05:08:34;;;;;;;17.67;12.63;;;;;;;;;;5064349;28;20318;-51
2023/03/19 05:11:01;;;;;;;17.70;12.13;;;;;;;;;;5065536;28;20642;-52
2023/03/19 05:13:28;;;;;;;14.73;11.47;;;;;;;;;;5063554;28;20231;-52
2023/03/19 05:15:55;;;;;;;11.77;10.43;;;;;;;;;;5063226;28;20304;-52
2023/03/19 05:18:23;;;;;;;12.57;11.27;;;;;;;;;;5062050;28;20614;-52
2023/03/19 05:20:50;;;;;;;13.63;11.27;;;;;;;;;;5060557;28;20239;-52
2023/03/19 05:23:17;;;;;;;16.83;12.90;;;;;;;;;;5061225;28;20316;-51
2023/03/19 05:25:45;;;;;;;14.00;12.00;;;;;;;;;;5053729;28;20227;-51
2023/03/19 05:28:11;;;;;;;15.90;12.10;;;;;;;;;;5062796;28;20239;-51
2023/03/19 05:30:38;;;;;;;15.57;13.67;;;;;;;;;;5061434;28;20281;-51
2023/03/19 05:33:05;;;;;;;17.03;12.23;;;;;;;;;;5062420;28;20238;-52
2023/03/19 05:35:33;;;;;;;15.83;10.67;;;;;;;;;;5061496;28;20368;-51
2023/03/19 05:38:00;;;;;;;15.27;11.87;;;;;;;;;;5063164;28;20277;-51
2023/03/19 05:40:26;;;;;;;15.73;12.23;;;;;;;;;;5063537;28;20651;-51
2023/03/19 05:42:53;;;;;;;16.17;13.80;;;;;;;;;;5061151;28;20251;-50
2023/03/19 05:45:19;;;;;;;18.20;13.30;;;;;;;;;;5063142;28;20238;-51
2023/03/19 05:47:47;;;;;;;14.37;12.93;;;;;;;;;;5061274;28;20637;-51
2023/03/19 05:50:13;;;;;;;15.07;13.30;;;;;;;;;;5062620;28;20325;-52
2023/03/19 05:52:41;;;;;;;15.57;13.97;;;;;;;;;;5063179;28;20242;-52
2023/03/19 05:55:08;;;;;;;15.30;13.30;;;;;;;;;;5062913;28;20288;-51
2023/03/19 05:57:35;;;;;;;17.50;14.10;;;;;;;;;;5062050;28;20863;-52
2023/03/19 06:00:02;;;;;;;19.73;13.40;;;;;;;;;;5063216;28;20228;-53
2023/03/19 06:02:28;;;;;;;17.83;14.07;;;;;;;;;;5061866;28;20242;-52
2023/03/19 06:04:55;;;;;;;16.20;13.50;;;;;;;;;;5063008;28;20243;-52
2023/03/19 06:07:21;;;;;;;15.77;12.87;;;;;;;;;;5059036;28;20224;-51
2023/03/19 06:09:50;;;;;;;14.70;11.87;;;;;;;;;;5067751;28;20316;-51
2023/03/19 06:12:17;;;;;;;12.93;11.20;;;;;;;;;;5065477;28;21070;-52
2023/03/19 06:14:46;;;;;;;13.67;11.63;;;;;;;;;;5061178;28;20223;-52
2023/03/19 06:17:12;;;;;;;14.13;12.63;;;;;;;;;;5063126;28;20235;-52
2023/03/19 06:19:39;;;;;;;17.20;13.17;;;;;;;;;;5065234;28;20607;-52
2023/03/19 06:22:06;;;;;;;13.37;11.30;;;;;;;;;;5063424;28;20243;-53
2023/03/19 06:24:33;;;;;;;13.43;11.17;;;;;;;;;;5065907;28;20314;-51
2023/03/19 06:27:01;;;;;;;13.70;11.97;;;;;;;;;;5065442;28;20227;-51
2023/03/19 06:29:28;;;;;;;15.43;11.30;;;;;;;;;;5064766;28;20327;-52
2023/03/19 06:31:54;;;;;;;12.57;9.83;;;;;;;;;;5065651;28;20615;-52
2023/03/19 06:34:21;;;;;;;13.07;10.90;;;;;;;;;;5065068;28;20909;-52
2023/03/19 06:36:48;;;;;;;16.23;12.37;;;;;;;;;;5065782;28;20247;-51
2023/03/19 06:39:14;;;;;;;18.57;11.80;;;;;;;;;;5057122;28;20227;-53
2023/03/19 06:41:41;;;;;;;17.63;11.30;;;;;;;;;;5062185;28;20314;-52
2023/03/19 06:44:09;;;;;;;11.90;10.67;;;;;;;;;;5065384;28;20230;-52
2023/03/19 06:46:36;;;;;;;12.73;11.37;;;;;;;;;;5066582;28;20238;-51
2023/03/19 06:49:02;;;;;;;14.87;11.47;;;;;;;;;;5057332;28;20740;-53
2023/03/19 06:51:29;;;;;;;14.20;12.10;;;;;;;;;;5061140;28;20231;-52
2023/03/19 06:53:56;;;;;;;12.23;10.47;;;;;;;;;;5065474;28;20258;-52
2023/03/19 06:56:23;;;;;;;10.57;9.47;;;;;;;;;;5060964;28;20651;-51
2023/03/19 06:58:49;;;;;;;12.00;9.83;;;;;;;;;;5065423;28;20571;-52
2023/03/19 07:01:17;;;;;;;15.53;11.67;;;;;;;;;;5065204;28;20243;-55
2023/03/19 07:03:44;;;;;;;16.57;13.53;;;;;;;;;;5065457;28;20322;-54
2023/03/19 07:06:10;;;;;;;14.73;13.13;;;;;;;;;;5057110;28;20231;-54
2023/03/19 07:08:37;;;;;;;17.73;14.47;;;;;;;;;;5061365;28;20227;-53
2023/03/19 07:11:04;;;;;;;16.33;13.97;;;;;;;;;;5065280;28;20318;-52
2023/03/19 07:13:31;;;;;;;16.13;13.97;;;;;;;;;;5057219;28;20277;-52
2023/03/19 07:15:58;;;;;;;17.63;15.80;;;;;;;;;;5062958;28;20788;-53
2023/03/19 07:18:26;;;;;;;18.93;16.23;;;;;;;;;;5063161;28;20324;-51
2023/03/19 07:20:53;;;;;;;18.70;16.70;;;;;;;;;;5058548;28;20227;-52
2023/03/19 07:23:20;;;;;;;17.70;14.77;;;;;;;;;;5064872;28;20242;-53
2023/03/19 07:25:47;;;;;;;18.30;15.00;;;;;;;;;;5065761;28;20223;-53
2023/03/19 07:28:13;;;;;;;20.33;16.00;;;;;;;;;;5066477;28;20231;-54
2023/03/19 07:30:40;;;;;;;18.77;15.77;;;;;;;;;;5066654;28;20238;-53
2023/03/19 07:33:07;;;;;;;17.73;14.87;;;;;;;;;;5067111;28;20239;-54
2023/03/19 07:35:35;;;;;;;21.60;17.23;;;;;;;;;;5066722;28;20781;-53
2023/03/19 07:38:02;;;;;;;18.67;16.77;;;;;;;;;;5064526;28;20728;-54
2023/03/19 07:40:29;;;;;;;18.50;15.87;;;;;;;;;;5068179;28;20223;-54
2023/03/19 07:42:55;;;;;;;23.50;18.47;;;;;;;;;;5072103;28;20368;-54
2023/03/19 07:45:22;;;;;;;22.63;18.43;;;;;;;;;;5070490;28;20678;-54
2023/03/19 07:47:50;;;;;;;21.90;18.23;;;;;;;;;;5076593;28;20303;-56
2023/03/19 07:50:17;;;;;;;22.50;17.93;;;;;;;;;;5083603;28;20231;-55
2023/03/19 07:52:46;;;;;;;24.30;18.50;;;;;;;;;;5075774;28;20235;-53
2023/03/19 07:55:13;;;;;;;21.37;19.10;;;;;;;;;;5048152;28;20234;-53
2023/03/19 07:57:40;;;;;;;24.70;19.70;;;;;;;;;;5045668;28;20231;-53
2023/03/19 08:00:08;;;;;;;20.43;17.77;;;;;;;;;;5054116;28;20956;-54
2023/03/19 08:02:34;;;;;;;19.80;16.73;;;;;;;;;;5064904;28;20235;-54
2023/03/19 08:05:03;;;;;;;22.53;16.90;;;;;;;;;;5066481;28;20239;-52
2023/03/19 08:07:30;;;;;;;17.67;15.83;;;;;;;;;;5064209;28;20234;-54
2023/03/19 08:09:58;;;;;;;19.90;17.73;;;;;;;;;;5066054;28;20245;-52
2023/03/19 08:12:33;;;;;;;20.20;18.07;;;;;;;;;;5060317;28;20239;-52
2023/03/19 08:14:59;;;;;;;20.87;18.67;;;;;;;;;;5063944;28;20309;-54
2023/03/19 08:17:26;;;;;;;23.03;20.10;;;;;;;;;;5064631;28;20262;-52
2023/03/19 08:19:53;;;;;;;23.67;19.80;;;;;;;;;;5065687;28;20239;-53
2023/03/19 08:22:19;;;;;;;23.17;20.70;;;;;;;;;;5063860;28;20238;-53
2023/03/19 08:24:46;;;;;;;23.47;19.67;;;;;;;;;;5064926;28;20243;-52
2023/03/19 08:27:14;;;;;;;33.30;26.67;;;;;;;;;;5065064;28;20896;-55
2023/03/19 08:29:41;;;;;;;23.67;20.87;;;;;;;;;;5064686;28;20246;-51
2023/03/19 08:32:11;;;;;;;23.27;20.77;;;;;;;;;;5064846;28;20285;-52
2023/03/19 08:34:37;;;;;;;25.13;20.43;;;;;;;;;;5065398;28;20242;-52
2023/03/19 08:37:04;;;;;;;26.03;20.80;;;;;;;;;;5063121;28;20239;-51
2023/03/19 08:39:31;;;;;;;24.20;21.53;;;;;;;;;;5064964;28;20231;-52
2023/03/19 08:41:58;;;;;;;23.90;21.40;;;;;;;;;;5064665;28;20421;-59
2023/03/19 08:44:26;;;;;;;26.60;20.90;;;;;;;;;;5064827;28;20261;-52
2023/03/19 08:46:52;;;;;;;22.73;19.30;;;;;;;;;;5065567;28;20245;-52
2023/03/19 08:49:19;;;;;;;22.60;20.03;;;;;;;;;;5065134;28;20227;-52
2023/03/19 08:51:46;;;;;;;22.53;20.13;;;;;;;;;;5065102;28;20989;-52
2023/03/19 08:54:12;;;;;;;22.03;19.67;;;;;;;;;;5065300;28;20322;-52
2023/03/19 08:56:39;;;;;;;22.27;18.60;;;;;;;;;;5065504;28;20233;-52
2023/03/19 08:59:06;;;;;;;23.40;20.87;;;;;;;;;;5060401;28;20657;-52
2023/03/19 09:01:35;;;;;;;22.47;20.13;;;;;;;;;;5064767;28;20231;-51
2023/03/19 09:04:02;;;;;;;24.90;20.00;;;;;;;;;;5059900;28;20224;-53
2023/03/19 09:06:28;;;;;;;20.47;18.33;;;;;;;;;;5044842;28;20322;-53
2023/03/19 09:08:55;;;;;;;24.17;17.47;;;;;;;;;;5057540;28;20231;-52
2023/03/19 09:11:22;;;;;;;20.47;18.20;;;;;;;;;;5063696;28;20239;-53
2023/03/19 09:13:48;;;;;;;23.83;19.23;;;;;;;;;;5062054;28;20243;-52
2023/03/19 09:16:15;;;;;;;25.03;20.40;;;;;;;;;;5062685;28;20736;-53
2023/03/19 09:18:43;;;;;;;21.10;16.90;;;;;;;;;;5061035;28;20224;-52
2023/03/19 09:21:10;;;;;;;25.07;18.43;;;;;;;;;;5064999;28;20227;-53
2023/03/19 09:23:36;;;;;;;20.27;17.57;;;;;;;;;;5064510;28;20314;-52
2023/03/19 09:26:03;;;;;;;19.07;16.73;;;;;;;;;;5063666;28;20729;-52
2023/03/19 09:28:30;;;;;;;19.63;16.83;;;;;;;;;;5063271;28;20617;-52
2023/03/19 09:30:56;;;;;;;21.17;18.23;;;;;;;;;;5064544;28;20231;-53
2023/03/19 09:33:23;;;;;;;17.73;15.67;;;;;;;;;;5063194;28;20280;-52
2023/03/19 09:35:52;;;;;;;19.87;16.43;;;;;;;;;;5061385;28;20239;-52
2023/03/19 09:38:18;;;;;;;19.97;17.17;;;;;;;;;;5063576;28;20241;-51
2023/03/19 09:40:46;;;;;;;22.27;16.63;;;;;;;;;;5065029;28;20231;-51
2023/03/19 09:43:20;;;;;;;17.67;15.83;;;;;;;;;;5068483;28;20245;-52
2023/03/19 09:45:47;;;;;;;18.37;16.60;;;;;;;;;;5068118;28;20239;-51
2023/03/19 09:48:16;;;;;;;22.13;17.87;;;;;;;;;;5068677;27;20761;-52
2023/03/19 09:50:44;;;;;;;20.07;16.43;;;;;;;;;;5068483;28;20231;-51
2023/03/19 09:53:16;;;;;;;22.43;17.10;;;;;;;;;;5068570;28;20733;-56
2023/03/19 09:55:43;;;;;;;18.07;16.07;;;;;;;;;;5068879;28;20227;-52
2023/03/19 09:58:13;;;;;;;20.27;17.20;;;;;;;;;;5061343;28;20242;-54
2023/03/19 10:00:41;;;;;;;20.60;17.77;;;;;;;;;;5065305;28;20701;-52
2023/03/19 10:03:13;;;;;;;21.60;16.90;;;;;;;;;;5066535;28;20288;-52
2023/03/19 10:05:45;;;;;;;17.33;14.83;;;;;;;;;;5064535;28;20693;-52
2023/03/19 10:08:25;;;;;;;16.07;14.37;;;;;;;;;;5065908;28;20318;-52
2023/03/19 10:10:58;;;;;;;16.57;14.27;;;;;;;;;;5066046;28;20267;-51
2023/03/19 10:13:38;;;;;;;15.93;14.40;;;;;;;;;;5065835;28;20235;-52
2023/03/19 10:16:06;;;;;;;16.30;14.50;;;;;;;;;;5064138;28;20641;-52
2023/03/19 10:18:34;;;;;;;14.83;13.30;;;;;;;;;;5061749;28;20762;-51
2023/03/19 10:21:02;;;;;;;15.60;12.87;;;;;;;;;;5065348;28;20330;-52
2023/03/19 10:23:34;;;;;;;12.93;11.47;;;;;;;;;;5069889;28;20239;-52
2023/03/19 10:26:02;;;;;;;14.37;11.63;;;;;;;;;;5071679;28;20242;-52
2023/03/19 10:28:29;;;;;;;14.40;12.90;;;;;;;;;;5070130;28;20231;-52
2023/03/19 10:31:01;;;;;;;15.40;13.80;;;;;;;;;;5069748;28;20245;-52
2023/03/19 10:33:32;;;;;;;13.93;12.27;;;;;;;;;;5069433;28;20255;-51
2023/03/19 10:36:02;;;;;;;15.17;12.30;;;;;;;;;;5069065;28;20250;-52
2023/03/19 10:38:29;;;;;;;15.67;14.10;;;;;;;;;;5067012;28;20227;-53
2023/03/19 10:41:14;;;;;;;16.90;14.17;;;;;;;;;;5068031;28;20241;-51
2023/03/19 10:43:43;;;;;;;15.53;13.87;;;;;;;;;;5056174;28;20241;-52
2023/03/19 10:46:12;;;;;;;14.93;13.00;;;;;;;;;;5065572;28;20681;-51
2023/03/19 10:48:43;;;;;;;12.32;11.13;;;;;;;;;;5066912;28;20231;-52
2023/03/19 10:51:13;;;;;;;14.67;13.17;;;;;;;;;;5066864;28;20720;-51
2023/03/19 10:53:40;;;;;;;15.70;13.03;;;;;;;;;;5066663;28;20227;-53
2023/03/19 10:56:07;;;;;;;14.23;11.90;;;;;;;;;;5064347;28;20242;-52
2023/03/19 10:58:35;;;;;;;14.68;11.80;;;;;;;;;;5058021;28;20235;-54
2023/03/19 11:01:05;;;;;;;12.43;11.18;;;;;;;;;;5058919;28;20282;-52
2023/03/19 11:03:32;;;;;;;13.52;10.32;;;;;;;;;;5059329;28;20314;-51
2023/03/19 11:06:17;;;;;;;10.73;9.40;;;;;;;;;;5066784;28;20259;-53
2023/03/19 11:08:47;;;;;;;13.10;11.20;;;;;;;;;;5063027;28;20236;-53
2023/03/19 11:11:23;;;;;;;11.65;10.50;;;;;;;;;;5065718;28;20772;-52
2023/03/19 11:13:50;;;;;;;11.70;10.60;;;;;;;;;;5062486;28;20764;-52
2023/03/19 11:16:18;;;;;;;11.90;10.70;;;;;;;;;;5066909;28;20227;-52
2023/03/19 11:18:46;;;;;;;13.63;12.20;;;;;;;;;;5061648;28;20235;-52
2023/03/19 11:21:21;;;;;;;11.68;9.93;;;;;;;;;;5067083;28;20247;-51
2023/03/19 11:23:52;;;;;;;11.15;10.10;;;;;;;;;;5066720;28;20239;-50
2023/03/19 11:26:19;;;;;;;12.15;9.65;;;;;;;;;;5065759;28;20247;-51
2023/03/19 11:28:50;;;;;;;10.38;9.38;;;;;;;;;;5062502;28;20268;-52
2023/03/19 11:31:21;;;;;;;11.32;10.18;;;;;;;;;;5066648;28;20259;-52
2023/03/19 11:33:50;;;;;;;9.90;8.90;;;;;;;;;;5066031;28;20268;-53
2023/03/19 11:36:21;;;;;;;10.05;8.77;;;;;;;;;;5067192;27;20648;-52
2023/03/19 11:38:53;;;;;;;9.50;8.57;;;;;;;;;;5066362;28;20234;-52
2023/03/19 11:41:25;;;;;;;9.47;8.60;;;;;;;;;;5061591;28;20235;-52
2023/03/19 11:43:56;;;;;;;8.30;7.50;;;;;;;;;;5063475;28;20239;-51
2023/03/19 11:46:37;;;;;;;10.30;8.75;;;;;;;;;;5058364;28;20242;-53
2023/03/19 11:49:11;;;;;;;9.38;8.48;;;;;;;;;;5065524;28;20778;-52
2023/03/19 11:51:42;;;;;;;10.10;8.05;;;;;;;;;;5065325;28;20320;-51
2023/03/19 11:54:12;;;;;;;9.27;8.38;;;;;;;;;;5064900;28;20243;-53
2023/03/19 11:56:41;;;;;;;8.10;7.30;;;;;;;;;;5063892;28;20223;-51
2023/03/19 11:59:32;;;;;;;8.73;7.80;;;;;;;;;;5064813;28;20272;-53
2023/03/19 12:02:12;;;;;;;7.93;7.15;;;;;;;;;;5046526;28;20237;-53
2023/03/19 12:04:57;;;;;;;8.35;7.55;;;;;;;;;;5063944;28;20314;-50
2023/03/19 12:07:26;;;;;;;8.32;7.45;;;;;;;;;;5064396;28;20308;-54
2023/03/19 12:09:57;;;;;;;8.75;7.85;;;;;;;;;;5064953;28;20605;-51
2023/03/19 12:12:26;;;;;;;7.32;6.60;;;;;;;;;;5063932;28;20327;-53
2023/03/19 12:14:57;;;;;;;7.90;6.53;;;;;;;;;;5063325;28;20872;-54
2023/03/19 12:17:34;;;;;;;7.05;6.32;;;;;;;;;;5060617;28;20300;-51
2023/03/19 12:20:05;;;;;;;6.43;5.78;;;;;;;;;;5067249;28;20639;-51
2023/03/19 12:22:39;;;;;;;7.32;6.38;;;;;;;;;;5059220;28;20239;-51
2023/03/19 12:25:18;;;;;;;6.75;5.85;;;;;;;;;;5066552;28;20304;-52
2023/03/19 12:27:48;;;;;;;6.18;5.60;;;;;;;;;;5064902;28;20223;-51
2023/03/19 12:30:19;;;;;;;8.18;7.38;;;;;;;;;;5066404;28;20242;-56
2023/03/19 12:32:56;;;;;;;6.55;5.95;;;;;;;;;;5070981;28;20230;-52
2023/03/19 12:35:25;;;;;;;7.25;6.38;;;;;;;;;;5066996;28;20226;-51
2023/03/19 12:37:56;;;;;;;7.25;6.15;;;;;;;;;;5063931;28;20234;-57
2023/03/19 12:40:26;;;;;;;8.10;7.40;;;;;;;;;;5066897;28;20238;-52
2023/03/19 12:42:55;;;;;;;7.15;6.43;;;;;;;;;;5073903;28;20239;-52
2023/03/19 12:45:28;;;;;;;8.38;7.57;;;;;;;;;;5073007;28;20791;-51
2023/03/19 12:47:58;;;;;;;8.32;7.47;;;;;;;;;;5070830;28;20682;-55
2023/03/19 12:50:26;;;;;;;9.25;8.32;;;;;;;;;;5069359;28;20318;-51
2023/03/19 12:52:55;;;;;;;10.85;7.53;;;;;;;;;;5071085;28;20235;-53
2023/03/19 12:55:22;;;;;;;7.60;6.80;;;;;;;;;;5069232;28;20257;-54
2023/03/19 12:57:51;;;;;;;12.63;7.53;;;;;;;;;;5065486;28;20338;-52
2023/03/19 13:00:21;;;;;;;8.25;6.93;;;;;;;;;;5067219;28;20239;-52
2023/03/19 13:02:52;;;;;;;8.00;7.28;;;;;;;;;;5061471;28;20239;-52
2023/03/19 13:05:25;;;;;;;9.73;7.65;;;;;;;;;;5067566;28;20296;-52
2023/03/19 13:07:55;;;;;;;9.38;7.78;;;;;;;;;;5063725;28;20231;-55
2023/03/19 13:10:22;;;;;;;7.75;6.95;;;;;;;;;;5064862;28;20318;-52
2023/03/19 13:12:50;;;;;;;7.45;6.75;;;;;;;;;;5062696;28;20300;-53
2023/03/19 13:15:19;;;;;;;11.23;7.22;;;;;;;;;;5066746;28;20328;-51
2023/03/19 13:17:52;;;;;;;9.55;6.70;;;;;;;;;;5062115;28;20700;-52
2023/03/19 13:20:34;;;;;;;9.35;7.85;;;;;;;;;;5065080;28;20900;-53
2023/03/19 13:23:02;;;;;;;9.40;7.88;;;;;;;;;;5065793;28;20282;-53
2023/03/19 13:25:32;;;;;;;7.63;6.90;;;;;;;;;;5066476;28;20242;-53
2023/03/19 13:27:59;;;;;;;8.27;7.07;;;;;;;;;;5059027;28;20281;-51
2023/03/19 13:30:26;;;;;;;9.25;7.38;;;;;;;;;;5068399;28;20227;-52
2023/03/19 13:33:00;;;;;;;7.35;6.60;;;;;;;;;;5069879;28;20231;-54
2023/03/19 13:35:33;;;;;;;7.40;6.70;;;;;;;;;;5064861;28;20234;-51
2023/03/19 13:38:02;;;;;;;8.68;7.65;;;;;;;;;;5068156;28;20715;-52
2023/03/19 13:40:42;;;;;;;7.53;6.82;;;;;;;;;;5064805;28;20237;-58
2023/03/19 13:43:21;;;;;;;9.43;8.45;;;;;;;;;;5060885;28;20341;-52
2023/03/19 13:45:51;;;;;;;11.02;7.70;;;;;;;;;;5063252;28;20302;-54
2023/03/19 13:48:34;;;;;;;7.85;7.05;;;;;;;;;;5061893;28;20793;-52
2023/03/19 13:51:03;;;;;;;6.75;5.97;;;;;;;;;;5062673;28;20258;-53
2023/03/19 13:53:38;;;;;;;7.65;6.82;;;;;;;;;;5066195;28;20274;-52
2023/03/19 13:56:05;;;;;;;8.40;7.55;;;;;;;;;;5065265;28;20227;-53
2023/03/19 13:58:51;;;;;;;6.20;5.70;;;;;;;;;;5064764;28;20231;-51
2023/03/19 14:01:37;;;;;;;6.30;5.70;;;;;;;;;;5064424;28;20239;-53
2023/03/19 14:04:04;;;;;;;9.10;7.68;;;;;;;;;;5061066;28;20864;-52
2023/03/19 14:06:33;;;;;;;6.45;5.85;;;;;;;;;;5061113;28;20254;-53
2023/03/19 14:09:00;;;;;;;6.60;5.80;;;;;;;;;;5063289;28;20231;-52
2023/03/19 14:11:30;;;;;;;7.30;5.97;;;;;;;;;;5063826;28;20894;-52
2023/03/19 14:14:00;;;;;;;6.57;5.97;;;;;;;;;;5064726;28;20301;-51
2023/03/19 14:16:30;;;;;;;6.82;6.13;;;;;;;;;;5061378;28;20744;-51
2023/03/19 14:18:57;;;;;;;9.38;7.00;;;;;;;;;;5058146;28;20242;-53
2023/03/19 14:21:39;;;;;;;9.88;7.57;;;;;;;;;;5062734;28;20310;-53
2023/03/19 14:24:27;;;;;;;6.80;6.20;;;;;;;;;;5063453;28;20231;-52
2023/03/19 14:26:54;;;;;;;8.15;6.03;;;;;;;;;;5063766;28;20259;-53
2023/03/19 14:29:23;;;;;;;7.65;6.85;;;;;;;;;;5062843;28;20242;-51
2023/03/19 14:31:52;;;;;;;9.48;7.55;;;;;;;;;;5063503;28;20235;-52